createdAt,value
2023-05-02T00:00:05.889Z,100060.19
2023-05-02T00:02:35.016Z,100062.03
2023-05-02T00:05:03.558Z,100062.88
2023-05-02T00:07:32.111Z,100065.75
2023-05-02T00:10:02.692Z,100065.75
2023-05-02T00:12:31.238Z,100044.69
2023-05-02T00:15:01.160Z,100055.38
2023-05-02T00:17:29.556Z,100054.81
2023-05-02T00:19:58.317Z,100062.81
2023-05-02T00:22:26.812Z,100056.94
2023-05-02T00:24:58.593Z,100061.44
2023-05-02T00:27:27.110Z,100054.50
2023-05-02T00:29:55.964Z,100051.53
2023-05-02T00:32:25.699Z,100056.34
2023-05-02T00:34:54.100Z,100063.53
2023-05-02T00:37:22.472Z,100076.31
2023-05-02T00:39:50.848Z,100070.66
2023-05-02T00:42:19.208Z,100078.09
2023-05-02T00:44:48.051Z,100083.91
2023-05-02T00:47:16.986Z,100089.00
2023-05-02T00:49:46.715Z,100081.00
2023-05-02T00:52:15.328Z,100084.41
2023-05-02T00:54:44.397Z,100085.47
2023-05-02T00:57:12.822Z,100085.13
2023-05-02T00:59:41.363Z,100074.44
2023-05-02T01:02:35.879Z,100090.16
2023-05-02T01:05:17.373Z,100092.28
2023-05-02T01:08:04.879Z,100094.63
2023-05-02T01:10:48.626Z,100088.75
2023-05-02T01:13:23.912Z,100098.31
2023-05-02T01:15:54.785Z,100090.53
2023-05-02T01:18:26.758Z,100090.00
2023-05-02T01:21:01.961Z,100095.56
2023-05-02T01:23:40.301Z,100098.50
2023-05-02T01:26:19.092Z,100096.31
2023-05-02T01:29:01.253Z,100102.94
2023-05-02T01:31:33.250Z,100114.13
2023-05-02T01:34:03.842Z,100105.56
2023-05-02T01:36:34.600Z,100107.91
2023-05-02T01:39:04.206Z,100117.50
2023-05-02T01:41:34.695Z,100112.69
2023-05-02T01:44:05.949Z,100114.97
2023-05-02T01:46:41.066Z,100119.50
2023-05-02T01:49:10.106Z,100125.63
2023-05-02T01:51:43.187Z,100132.25
2023-05-02T01:54:14.327Z,100125.81
2023-05-02T01:56:44.535Z,100135.66
2023-05-02T01:59:20.010Z,100135.13
2023-05-02T02:01:51.653Z,100136.63
2023-05-02T02:04:22.394Z,100137.16
2023-05-02T02:06:56.945Z,100145.13
2023-05-02T02:09:25.465Z,100146.66
2023-05-02T02:12:03.643Z,100159.16
2023-05-02T02:14:37.901Z,100162.09
2023-05-02T02:17:13.741Z,100164.44
2023-05-02T02:19:43.505Z,100163.06
2023-05-02T02:22:15.000Z,100157.41
2023-05-02T02:24:44.378Z,100166.19
2023-05-02T02:27:12.721Z,100173.66
2023-05-02T02:29:42.445Z,100181.53
2023-05-02T02:32:11.005Z,100170.09
2023-05-02T02:34:39.613Z,100170.34
2023-05-02T02:37:16.886Z,100175.09
2023-05-02T02:39:54.529Z,100178.81
2023-05-02T02:42:35.324Z,100167.59
2023-05-02T02:45:18.635Z,100179.53
2023-05-02T02:47:54.937Z,100187.25
2023-05-02T02:50:31.718Z,100189.03
2023-05-02T02:53:06.269Z,100198.63
2023-05-02T02:55:42.491Z,100196.75
2023-05-02T02:58:23.060Z,100192.97
2023-05-02T03:00:54.039Z,100181.75
2023-05-02T03:03:29.239Z,100199.34
2023-05-02T03:05:58.557Z,100186.53
2023-05-02T03:08:27.514Z,100198.72
2023-05-02T03:10:58.843Z,100197.41
2023-05-02T03:13:27.445Z,100198.94
2023-05-02T03:16:38.380Z,100187.66
2023-05-02T03:19:11.637Z,100194.28
2023-05-02T03:21:40.406Z,100208.38
2023-05-02T03:24:17.747Z,100221.34
2023-05-02T03:26:48.161Z,100221.34
2023-05-02T03:29:19.322Z,100231.41
2023-05-02T03:32:10.618Z,100224.16
2023-05-02T03:34:41.867Z,100229.50
2023-05-02T03:38:02.265Z,100222.72
2023-05-02T03:40:36.516Z,100224.91
2023-05-02T03:43:06.189Z,100229.41
2023-05-02T03:45:35.687Z,100225.13
2023-05-02T03:48:05.774Z,100232.53
2023-05-02T03:50:34.175Z,100235.91
2023-05-02T03:53:02.926Z,100243.31
2023-05-02T03:55:41.839Z,100245.66
2023-05-02T03:58:15.452Z,100252.81
2023-05-02T04:00:44.250Z,100245.22
2023-05-02T04:03:14.585Z,100259.34
2023-05-02T04:05:45.690Z,100253.44
2023-05-02T04:08:15.967Z,100268.00
2023-05-02T04:10:45.452Z,100265.59
2023-05-02T04:13:14.789Z,100271.13
2023-05-02T04:15:47.134Z,100254.03
2023-05-02T04:18:21.572Z,100262.25
2023-05-02T04:20:51.397Z,100281.34
2023-05-02T04:23:21.705Z,100287.13
2023-05-02T04:25:54.997Z,100296.94
2023-05-02T04:28:26.867Z,100297.19
2023-05-02T04:30:55.874Z,100307.03
2023-05-02T04:33:27.552Z,100308.03
2023-05-02T04:35:59.289Z,100314.06
2023-05-02T04:38:28.414Z,100315.34
2023-05-02T04:40:59.688Z,100329.44
2023-05-02T04:43:42.732Z,100313.41
2023-05-02T04:46:11.807Z,100326.44
2023-05-02T04:48:42.532Z,100321.38
2023-05-02T04:51:25.235Z,100316.84
2023-05-02T04:53:54.601Z,100334.91
2023-05-02T04:57:10.150Z,100335.31
2023-05-02T05:00:11.217Z,100335.31
2023-05-02T05:02:40.215Z,100333.13
2023-05-02T05:05:11.781Z,100339.00
2023-05-02T05:07:40.243Z,100350.69
2023-05-02T05:10:11.956Z,100356.34
2023-05-02T05:12:47.429Z,100360.25
2023-05-02T05:15:17.280Z,100356.00
2023-05-02T05:17:52.795Z,100370.09
2023-05-02T05:20:40.712Z,100367.91
2023-05-02T05:23:16.982Z,100374.38
2023-05-02T05:25:46.136Z,100370.88
2023-05-02T05:28:18.898Z,100374.13
2023-05-02T05:30:47.908Z,100378.41
2023-05-02T05:35:52.435Z,100386.19
2023-05-02T05:38:20.891Z,100388.03
2023-05-02T05:40:51.582Z,100411.72
2023-05-02T05:43:20.376Z,100422.34
2023-05-02T05:45:48.944Z,100394.16
2023-05-02T05:48:17.933Z,100406.16
2023-05-02T05:50:48.019Z,100405.69
2023-05-02T05:53:18.076Z,100416.31
2023-05-02T05:55:49.360Z,100424.44
2023-05-02T05:58:17.902Z,100423.97
2023-05-02T06:00:47.355Z,100427.19
2023-05-02T06:03:16.268Z,100418.75
2023-05-02T06:05:44.710Z,100421.41
2023-05-02T06:08:13.197Z,100424.41
2023-05-02T06:10:43.074Z,100424.16
2023-05-02T06:13:11.584Z,100427.97
2023-05-02T06:15:43.326Z,100431.47
2023-05-02T06:18:14.102Z,100433.06
2023-05-02T06:20:44.687Z,100435.03
2023-05-02T06:23:13.241Z,100439.06
2023-05-02T06:26:06.203Z,100439.88
2023-05-02T06:28:42.071Z,100441.28
2023-05-02T06:31:10.635Z,100442.16
2023-05-02T06:33:39.090Z,100445.97
2023-05-02T06:36:08.005Z,100447.63
2023-05-02T06:38:36.444Z,100451.63
2023-05-02T06:41:06.425Z,100458.94
2023-05-02T06:43:43.425Z,100451.75
2023-05-02T06:46:11.877Z,100465.97
2023-05-02T06:48:40.421Z,100465.97
2023-05-02T06:51:08.935Z,100464.69
2023-05-02T06:53:39.835Z,100487.91
2023-05-02T06:56:17.251Z,100479.47
2023-05-02T06:58:45.861Z,100473.34
2023-05-02T07:01:14.543Z,100509.31
2023-05-02T07:03:43.048Z,100481.09
2023-05-02T07:06:11.635Z,100472.88
2023-05-02T07:08:40.168Z,100505.38
2023-05-02T07:11:08.666Z,100473.69
2023-05-02T07:13:38.624Z,100487.00
2023-05-02T07:16:08.738Z,100489.66
2023-05-02T07:18:37.369Z,100486.53
2023-05-02T07:21:06.106Z,100480.75
2023-05-02T07:23:34.573Z,100475.06
2023-05-02T07:26:06.249Z,100487.19
2023-05-02T07:28:34.983Z,100479.69
2023-05-02T07:31:05.264Z,100490.91
2023-05-02T07:33:33.684Z,100475.84
2023-05-02T07:36:03.678Z,100486.34
2023-05-02T07:38:53.129Z,100490.63
2023-05-02T07:41:22.278Z,100490.78
2023-05-02T07:43:51.296Z,100483.34
2023-05-02T07:46:21.629Z,100471.50
2023-05-02T07:48:50.180Z,100477.16
2023-05-02T07:51:20.405Z,100481.47
2023-05-02T07:53:53.144Z,100482.81
2023-05-02T07:56:37.458Z,100471.38
2023-05-02T07:59:05.850Z,100475.44
2023-05-02T08:01:35.727Z,100481.88
2023-05-02T08:04:04.662Z,100477.44
2023-05-02T08:06:33.984Z,100486.59
2023-05-02T08:09:02.548Z,100495.16
2023-05-02T08:11:31.038Z,100509.38
2023-05-02T08:13:59.561Z,100499.06
2023-05-02T08:16:28.074Z,100508.72
2023-05-02T08:18:57.917Z,100510.13
2023-05-02T08:21:27.705Z,100519.03
2023-05-02T08:23:59.832Z,100510.78
2023-05-02T08:26:29.410Z,100513.69
2023-05-02T08:28:57.814Z,100508.44
2023-05-02T08:31:26.302Z,100505.78
2023-05-02T08:33:54.841Z,100511.44
2023-05-02T08:36:24.759Z,100528.56
2023-05-02T08:38:53.230Z,100522.41
2023-05-02T08:41:21.992Z,100519.16
2023-05-02T08:43:50.822Z,100525.41
2023-05-02T08:46:19.367Z,100525.50
2023-05-02T08:48:49.441Z,100525.00
2023-05-02T08:53:50.831Z,100534.66
2023-05-02T08:56:19.682Z,100536.25
2023-05-02T08:58:48.208Z,100536.00
2023-05-02T09:01:19.229Z,100536.81
2023-05-02T09:04:02.846Z,100531.81
2023-05-02T09:06:31.385Z,100551.16
2023-05-02T09:09:02.394Z,100548.59
2023-05-02T09:11:31.270Z,100556.66
2023-05-02T09:14:04.145Z,100555.59
2023-05-02T09:16:40.834Z,100556.44
2023-05-02T09:19:09.549Z,100569.66
2023-05-02T09:21:40.398Z,100569.97
2023-05-02T09:24:19.600Z,100577.91
2023-05-02T09:27:02.972Z,100574.50
2023-05-02T09:29:36.136Z,100581.78
2023-05-02T09:32:06.053Z,100583.75
2023-05-02T09:34:37.444Z,100591.25
2023-05-02T09:37:06.504Z,100584.63
2023-05-02T09:39:37.062Z,100581.38
2023-05-02T09:42:05.984Z,100575.34
2023-05-02T09:44:40.070Z,100587.34
2023-05-02T09:47:14.481Z,100575.50
2023-05-02T09:49:47.013Z,100576.84
2023-05-02T09:52:17.202Z,100582.03
2023-05-02T09:55:05.855Z,100596.50
2023-05-02T09:57:49.694Z,100586.25
2023-05-02T10:00:20.190Z,100612.41
2023-05-02T10:03:10.492Z,100585.72
2023-05-02T10:05:41.181Z,100590.91
2023-05-02T10:08:10.554Z,100599.00
2023-05-02T10:10:45.039Z,100599.81
2023-05-02T10:13:16.824Z,100586.22
2023-05-02T10:15:47.351Z,100577.16
2023-05-02T10:18:21.308Z,100607.41
2023-05-02T10:20:59.954Z,100593.34
2023-05-02T10:23:30.369Z,100592.84
2023-05-02T10:26:19.250Z,100578.69
2023-05-02T10:28:48.058Z,100585.72
2023-05-02T10:31:17.753Z,100585.72
2023-05-02T10:33:48.370Z,100586.28
2023-05-02T10:36:17.407Z,100590.06
2023-05-02T10:38:46.867Z,100572.44
2023-05-02T10:41:21.827Z,100594.13
2023-05-02T10:43:51.412Z,100567.19
2023-05-02T10:46:33.968Z,100593.69
2023-05-02T10:49:07.200Z,100577.97
2023-05-02T10:51:37.538Z,100584.94
2023-05-02T10:54:23.387Z,100592.97
2023-05-02T10:57:14.182Z,100575.31
2023-05-02T10:59:43.594Z,100584.44
2023-05-02T11:02:50.300Z,100578.81
2023-05-02T11:05:19.097Z,100578.53
2023-05-02T11:07:47.534Z,100570.84
2023-05-02T11:10:29.272Z,100573.25
2023-05-02T11:13:01.263Z,100575.44
2023-05-02T11:16:00.418Z,100576.50
2023-05-02T11:18:31.895Z,100568.53
2023-05-02T11:21:29.792Z,100572.31
2023-05-02T11:24:39.367Z,100578.25
2023-05-02T11:27:43.965Z,100578.50
2023-05-02T11:30:14.243Z,100574.00
2023-05-02T11:33:20.330Z,100574.00
2023-05-02T11:35:50.427Z,100564.44
2023-05-02T11:38:22.131Z,100562.88
2023-05-02T11:40:56.862Z,100572.56
2023-05-02T11:43:29.378Z,100575.84
2023-05-02T11:46:02.569Z,100576.97
2023-05-02T11:48:32.625Z,100578.41
2023-05-02T11:51:05.428Z,100568.53
2023-05-02T11:53:34.780Z,100571.47
2023-05-02T11:56:05.671Z,100575.41
2023-05-02T11:58:34.983Z,100576.47
2023-05-02T12:01:15.579Z,100572.19
2023-05-02T12:03:52.689Z,100557.19
2023-05-02T12:06:21.273Z,100546.09
2023-05-02T12:08:50.519Z,100550.97
2023-05-02T12:14:54.105Z,100562.59
2023-05-02T12:17:24.538Z,100561.03
2023-05-02T12:19:54.089Z,100560.03
2023-05-02T12:22:25.160Z,100567.84
2023-05-02T12:25:05.075Z,100558.28
2023-05-02T12:27:35.243Z,100567.41
2023-05-02T12:30:04.239Z,100574.41
2023-05-02T12:32:36.412Z,100578.69
2023-05-02T12:35:05.834Z,100573.34
2023-05-02T12:37:34.213Z,100573.91
2023-05-02T12:40:03.145Z,100577.69
2023-05-02T12:42:34.533Z,100580.38
2023-05-02T12:45:03.052Z,100577.50
2023-05-02T12:47:32.965Z,100570.53
2023-05-02T12:50:18.377Z,100574.56
2023-05-02T12:53:34.212Z,100574.66
2023-05-02T12:56:04.953Z,100570.13
2023-05-02T12:58:43.784Z,100566.44
2023-05-02T13:01:13.386Z,100567.78
2023-05-02T13:03:42.676Z,100569.97
2023-05-02T13:06:11.899Z,100569.44
2023-05-02T13:08:41.701Z,100561.41
2023-05-02T13:11:10.120Z,100560.34
2023-05-02T13:13:38.557Z,100565.72
2023-05-02T13:16:09.159Z,100570.56
2023-05-02T13:18:37.787Z,100566.84
2023-05-02T13:21:06.621Z,100563.13
2023-05-02T13:23:35.128Z,100557.03
2023-05-02T13:26:04.914Z,100553.56
2023-05-02T13:28:33.605Z,100549.34
2023-05-02T13:31:02.177Z,100561.16
2023-05-02T13:33:30.666Z,100547.81
2023-05-02T13:35:59.337Z,100552.44
2023-05-02T13:38:28.025Z,100538.78
2023-05-02T13:40:56.536Z,100543.09
2023-05-02T13:43:26.366Z,100546.06
2023-05-02T13:45:54.772Z,100542.28
2023-05-02T13:48:23.228Z,100557.06
2023-05-02T13:50:51.650Z,100549.81
2023-05-02T13:53:20.176Z,100549.28
2023-05-02T13:55:48.968Z,100552.25
2023-05-02T13:58:17.398Z,100543.41
2023-05-02T14:00:47.454Z,100548.22
2023-05-02T14:03:16.229Z,100548.78
2023-05-02T14:05:44.802Z,100546.38
2023-05-02T14:08:22.782Z,100546.38
2023-05-02T14:10:51.333Z,100552.28
2023-05-02T14:13:19.875Z,100558.25
2023-05-02T14:15:49.784Z,100558.19
2023-05-02T14:18:18.382Z,100563.81
2023-05-02T14:20:46.965Z,100574.53
2023-05-02T14:23:15.547Z,100569.69
2023-05-02T14:25:44.207Z,100582.31
2023-05-02T14:28:12.605Z,100580.94
2023-05-02T14:30:41.040Z,100586.06
2023-05-02T14:33:10.986Z,100585.50
2023-05-02T14:35:39.398Z,100591.16
2023-05-02T14:38:08.060Z,100584.19
2023-05-02T14:40:36.716Z,100578.25
2023-05-02T14:43:05.422Z,100585.50
2023-05-02T14:45:33.873Z,100581.50
2023-05-02T14:48:02.716Z,100578.53
2023-05-02T14:50:34.285Z,100576.69
2023-05-02T14:53:02.752Z,100589.81
2023-05-02T14:55:36.657Z,100601.09
2023-05-02T14:58:05.114Z,100588.78
2023-05-02T15:00:37.952Z,100591.69
2023-05-02T15:03:07.825Z,100591.44
2023-05-02T15:05:38.259Z,100587.13
2023-05-02T15:08:07.616Z,100586.09
2023-05-02T15:10:40.488Z,100594.66
2023-05-02T15:13:09.080Z,100576.69
2023-05-02T15:15:37.776Z,100576.44
2023-05-02T15:18:06.828Z,100595.22
2023-05-02T15:20:35.470Z,100596.81
2023-05-02T15:23:05.605Z,100598.94
2023-05-02T15:25:38.147Z,100596.53
2023-05-02T15:28:09.448Z,100591.69
2023-05-02T15:30:37.788Z,100598.41
2023-05-02T15:33:06.354Z,100602.72
2023-05-02T15:35:34.903Z,100604.31
2023-05-02T15:38:04.898Z,100604.88
2023-05-02T15:40:33.488Z,100596.81
2023-05-02T15:43:02.182Z,100603.50
2023-05-02T15:45:30.708Z,100603.50
2023-05-02T15:47:59.311Z,100600.56
2023-05-02T15:50:27.764Z,100596.00
2023-05-02T15:52:56.184Z,100597.34
2023-05-02T15:55:26.078Z,100600.53
2023-05-02T15:57:54.539Z,100600.03
2023-05-02T16:00:23.527Z,100600.81
2023-05-02T16:02:51.948Z,100605.09
2023-05-02T16:08:48.815Z,100605.34
2023-05-02T16:11:18.770Z,100603.19
2023-05-02T16:13:47.310Z,100611.00
2023-05-02T16:16:15.833Z,100603.75
2023-05-02T16:18:44.296Z,100603.22
2023-05-02T16:21:12.926Z,100606.16
2023-05-02T16:23:41.348Z,100607.25
2023-05-02T16:26:10.315Z,100617.41
2023-05-02T16:28:40.178Z,100608.84
2023-05-02T16:31:11.324Z,100607.75
2023-05-02T16:33:39.934Z,100616.09
2023-05-02T16:36:09.035Z,100615.53
2023-05-02T16:38:37.641Z,100616.59
2023-05-02T16:41:07.227Z,100616.59
2023-05-02T16:43:35.894Z,100618.19
2023-05-02T16:46:07.758Z,100617.66
2023-05-02T16:48:36.649Z,100627.00
2023-05-02T16:51:05.353Z,100621.91
2023-05-02T16:53:33.704Z,100621.09
2023-05-02T16:56:02.069Z,100627.75
2023-05-02T16:58:30.896Z,100630.44
2023-05-02T17:01:01.782Z,100632.56
2023-05-02T17:03:31.747Z,100626.66
2023-05-02T17:06:02.054Z,100632.28
2023-05-02T17:08:30.869Z,100630.94
2023-05-02T17:10:59.384Z,100636.28
2023-05-02T17:13:28.031Z,100647.53
2023-05-02T17:15:56.612Z,100633.84
2023-05-02T17:18:26.479Z,100639.50
2023-05-02T17:20:56.883Z,100641.63
2023-05-02T17:23:27.919Z,100642.69
2023-05-02T17:25:56.425Z,100643.69
2023-05-02T17:28:24.949Z,100646.06
2023-05-02T17:31:18.611Z,100636.94
2023-05-02T17:33:47.571Z,100640.91
2023-05-02T17:36:17.295Z,100637.97
2023-05-02T17:38:48.511Z,100636.88
2023-05-02T17:41:16.907Z,100645.97
2023-05-02T17:43:45.411Z,100646.22
2023-05-02T17:46:14.005Z,100647.78
2023-05-02T17:48:44.891Z,100645.63
2023-05-02T17:51:18.034Z,100662.19
2023-05-02T17:53:47.293Z,100660.38
2023-05-02T17:56:18.702Z,100668.09
2023-05-02T17:58:47.353Z,100665.66
2023-05-02T18:01:17.620Z,100666.44
2023-05-02T18:03:47.527Z,100668.81
2023-05-02T18:06:20.811Z,100674.41
2023-05-02T18:08:49.237Z,100672.50
2023-05-02T18:11:18.157Z,100663.66
2023-05-02T18:13:46.967Z,100666.84
2023-05-02T18:16:15.590Z,100667.34
2023-05-02T18:18:44.053Z,100668.66
2023-05-02T18:21:12.762Z,100666.78
2023-05-02T18:23:42.891Z,100666.78
2023-05-02T18:26:14.669Z,100671.31
2023-05-02T18:28:45.178Z,100690.06
2023-05-02T18:31:17.929Z,100697.03
2023-05-02T18:33:47.133Z,100694.59
2023-05-02T18:36:19.483Z,100689.53
2023-05-02T18:38:49.240Z,100705.81
2023-05-02T18:41:18.463Z,100710.88
2023-05-02T18:43:46.927Z,100702.19
2023-05-02T18:46:15.404Z,100714.75
2023-05-02T18:48:43.902Z,100716.53
2023-05-02T18:51:12.380Z,100727.44
2023-05-02T18:53:40.950Z,100730.66
2023-05-02T18:56:15.414Z,100736.72
2023-05-02T18:58:46.136Z,100738.06
2023-05-02T19:01:15.381Z,100738.28
2023-05-02T19:03:44.650Z,100746.56
2023-05-02T19:06:13.107Z,100756.69
2023-05-02T19:08:41.511Z,100761.50
2023-05-02T19:11:31.202Z,100764.06
2023-05-02T19:14:00.679Z,100770.22
2023-05-02T19:16:29.183Z,100778.41
2023-05-02T19:18:57.716Z,100780.44
2023-05-02T19:21:26.128Z,100774.00
2023-05-02T19:23:56.607Z,100793.94
2023-05-02T19:26:25.137Z,100797.91
2023-05-02T19:28:54.875Z,100798.03
2023-05-02T19:31:23.486Z,100797.72
2023-05-02T19:33:52.319Z,100804.13
2023-05-02T19:36:21.905Z,100804.63
2023-05-02T19:38:51.177Z,100812.09
2023-05-02T19:41:19.869Z,100808.63
2023-05-02T19:43:48.429Z,100810.97
2023-05-02T19:46:18.983Z,100804.72
2023-05-02T19:48:47.598Z,100816.78
2023-05-02T19:51:16.247Z,100828.78
2023-05-02T19:53:44.623Z,100822.03
2023-05-02T19:56:13.165Z,100837.84
2023-05-02T19:58:41.568Z,100834.84
2023-05-02T20:01:09.977Z,100830.25
2023-05-02T20:03:39.857Z,100828.59
2023-05-02T20:06:08.257Z,100840.34
2023-05-02T20:08:36.666Z,100848.31
2023-05-02T20:11:05.296Z,100843.66
2023-05-02T20:13:33.682Z,100850.88
2023-05-02T20:16:02.144Z,100854.03
2023-05-02T20:18:30.872Z,100850.00
2023-05-02T20:21:00.627Z,100855.81
2023-05-02T20:23:30.860Z,100857.34
2023-05-02T20:25:59.232Z,100859.44
2023-05-02T20:28:27.851Z,100860.38
2023-05-02T20:30:56.244Z,100871.06
2023-05-02T20:33:30.071Z,100866.72
2023-05-02T20:36:07.502Z,100872.75
2023-05-02T20:38:35.871Z,100871.63
2023-05-02T20:41:13.193Z,100868.06
2023-05-02T20:43:44.974Z,100875.69
2023-05-02T20:46:16.275Z,100878.50
2023-05-02T20:48:44.839Z,100880.38
2023-05-02T20:51:14.611Z,100883.66
2023-05-02T20:53:42.963Z,100885.44
2023-05-02T20:56:11.396Z,100887.97
2023-05-02T20:58:42.870Z,100884.41
2023-05-02T21:01:11.598Z,100885.94
2023-05-02T21:03:41.210Z,100880.94
2023-05-02T21:06:09.897Z,100874.81
2023-05-02T21:08:39.697Z,100877.13
2023-05-02T21:11:15.515Z,100890.13
2023-05-02T21:13:44.476Z,100895.91
2023-05-02T21:16:17.580Z,100892.34
2023-05-02T21:18:47.374Z,100892.00
2023-05-02T21:21:19.143Z,100887.94
2023-05-02T21:23:50.689Z,100899.09
2023-05-02T21:26:21.697Z,100892.38
2023-05-02T21:28:50.072Z,100908.38
2023-05-02T21:31:18.635Z,100903.38
2023-05-02T21:33:49.449Z,100895.16
2023-05-02T21:36:17.755Z,100899.09
2023-05-02T21:38:46.079Z,100904.31
2023-05-02T21:41:15.787Z,100901.75
2023-05-02T21:43:45.005Z,100906.47
2023-05-02T21:46:14.049Z,100909.03
2023-05-02T21:48:42.467Z,100912.41
2023-05-02T21:51:11.964Z,100902.41
2023-05-02T21:53:40.404Z,100906.13
2023-05-02T21:56:10.662Z,100907.41
2023-05-02T21:58:40.411Z,100919.81
2023-05-02T22:01:08.817Z,100916.78
2023-05-02T22:03:37.236Z,100911.31
2023-05-02T22:06:06.819Z,100918.97
2023-05-02T22:08:36.374Z,100910.88
2023-05-02T22:11:35.447Z,100899.25
2023-05-02T22:14:05.129Z,100915.59
2023-05-02T22:16:33.564Z,100913.16
2023-05-02T22:19:02.050Z,100904.81
2023-05-02T22:21:31.008Z,100921.41
2023-05-02T22:23:59.392Z,100920.00
2023-05-02T22:26:27.832Z,100919.03
2023-05-02T22:28:56.185Z,100912.91
2023-05-02T22:31:26.662Z,100928.91
2023-05-02T22:33:55.065Z,100920.78
2023-05-02T22:36:27.832Z,100909.63
2023-05-02T22:38:56.399Z,100923.44
2023-05-02T22:41:25.003Z,100924.09
2023-05-02T22:43:53.509Z,100920.13
2023-05-02T22:46:22.070Z,100921.16
2023-05-02T22:48:53.139Z,100928.97
2023-05-02T22:51:21.533Z,100932.91
2023-05-02T22:53:50.273Z,100930.47
2023-05-02T22:57:00.477Z,100920.59
2023-05-02T22:59:29.835Z,100925.22
2023-05-02T23:02:01.503Z,100906.03
2023-05-02T23:04:32.799Z,100938.19
2023-05-02T23:07:01.295Z,100912.25
2023-05-02T23:09:29.673Z,100935.16
2023-05-02T23:11:58.046Z,100945.06
2023-05-02T23:14:26.422Z,100943.22
2023-05-02T23:16:54.817Z,100943.91
2023-05-02T23:19:23.147Z,100935.31
2023-05-02T23:21:52.893Z,100941.69
2023-05-02T23:24:21.253Z,100932.09
2023-05-02T23:26:49.574Z,100942.13
2023-05-02T23:29:17.902Z,100938.66
2023-05-02T23:31:46.609Z,100936.22
2023-05-02T23:34:29.774Z,100954.91
2023-05-02T23:36:59.531Z,100925.91
2023-05-02T23:39:27.899Z,100928.84
2023-05-02T23:41:56.293Z,100942.94
2023-05-02T23:44:24.780Z,100933.22
2023-05-02T23:46:53.188Z,100953.22
2023-05-02T23:49:21.578Z,100948.56
2023-05-02T23:51:49.938Z,100945.16
2023-05-02T23:54:19.752Z,100947.44
2023-05-02T23:56:48.271Z,100963.84
2023-05-02T23:59:16.805Z,100945.69
